createdAt,value
2019-01-13T04:01:07.376Z,981.34
2019-01-13T04:02:07.975Z,981.40
2019-01-13T04:03:08.236Z,981.40
2019-01-13T04:04:08.224Z,981.34
2019-01-13T04:06:08.365Z,981.35
2019-01-13T04:07:07.137Z,981.21
2019-01-13T04:08:06.287Z,981.29
2019-01-13T04:09:06.463Z,981.27
2019-01-13T04:10:06.605Z,981.28
2019-01-13T04:11:06.806Z,981.26
2019-01-13T04:12:07.129Z,981.31
2019-01-13T04:13:07.102Z,981.32
2019-01-13T04:14:07.108Z,981.35
2019-01-13T04:15:07.435Z,981.30
2019-01-13T04:16:07.569Z,981.28
2019-01-13T04:17:07.910Z,981.23
2019-01-13T04:18:07.710Z,981.28
2019-01-13T04:19:07.951Z,981.31
2019-01-13T04:20:08.064Z,981.33
2019-01-13T04:21:08.349Z,981.32
2019-01-13T04:22:08.534Z,981.22
2019-01-13T04:23:08.757Z,981.24
2019-01-13T04:24:08.910Z,981.24
2019-01-13T04:25:09.163Z,981.27
2019-01-13T04:26:09.261Z,981.22
2019-01-13T04:27:09.311Z,981.19
2019-01-13T04:28:09.508Z,981.17
2019-01-13T04:29:09.647Z,981.20
2019-01-13T04:30:09.922Z,981.22
2019-01-13T04:31:10.090Z,981.18
2019-01-13T04:32:10.232Z,981.16
2019-01-13T04:33:10.446Z,981.20
2019-01-13T04:34:10.582Z,981.15
2019-01-13T04:35:10.821Z,981.17
2019-01-13T04:36:11.039Z,981.06
2019-01-13T04:37:11.239Z,981.04
2019-01-13T04:38:11.442Z,980.96
2019-01-13T04:39:11.740Z,980.96
2019-01-13T04:40:11.856Z,980.94
2019-01-13T04:41:11.951Z,980.96
2019-01-13T04:42:12.238Z,980.91
2019-01-13T04:43:13.401Z,980.87
2019-01-13T04:44:12.565Z,980.89
2019-01-13T04:45:12.684Z,980.83
2019-01-13T04:46:12.795Z,980.79
2019-01-13T04:47:13.082Z,980.79
2019-01-13T04:48:13.141Z,980.79
2019-01-13T04:49:13.334Z,980.81
2019-01-13T04:50:13.375Z,980.75
2019-01-13T04:51:13.731Z,980.71
2019-01-13T04:52:13.805Z,980.76
2019-01-13T04:53:13.963Z,980.73
2019-01-13T04:54:14.247Z,980.73
2019-01-13T04:55:14.326Z,980.79
2019-01-13T04:56:14.475Z,980.77
2019-01-13T04:57:14.645Z,980.79
2019-01-13T04:58:14.794Z,980.73
2019-01-13T04:59:15.068Z,980.77
2019-01-13T05:00:15.456Z,980.68
2019-01-13T05:01:15.399Z,980.63
2019-01-13T05:02:15.502Z,980.62
2019-01-13T05:03:15.762Z,980.61
2019-01-13T05:04:15.936Z,980.57
2019-01-13T05:05:16.111Z,980.54
2019-01-13T05:06:16.151Z,980.50
2019-01-13T05:07:16.537Z,980.48
2019-01-13T05:08:16.576Z,980.45
2019-01-13T05:09:16.653Z,980.49
2019-01-13T05:10:16.885Z,980.48
2019-01-13T05:11:16.948Z,980.49
2019-01-13T05:12:17.318Z,980.45
2019-01-13T05:13:17.226Z,980.50
2019-01-13T05:14:17.471Z,980.52
2019-01-13T05:15:17.556Z,980.55
2019-01-13T05:16:17.721Z,980.56
2019-01-13T05:17:17.950Z,980.53
2019-01-13T05:18:18.059Z,980.49
2019-01-13T05:19:18.173Z,980.47
2019-01-13T05:20:18.435Z,980.43
2019-01-13T05:21:18.627Z,980.41
2019-01-13T05:22:18.714Z,980.39
2019-01-13T05:23:18.777Z,980.43
2019-01-13T05:24:19.026Z,980.36
2019-01-13T05:25:19.112Z,980.38
2019-01-13T05:26:19.658Z,980.38
2019-01-13T05:27:19.475Z,980.35
2019-01-13T05:28:19.550Z,980.40
2019-01-13T05:29:19.849Z,980.32
2019-01-13T05:30:21.519Z,980.30
2019-01-13T05:31:21.215Z,980.29
2019-01-13T05:32:20.887Z,980.20
2019-01-13T05:33:21.001Z,980.21
2019-01-13T05:34:20.817Z,980.17
2019-01-13T05:35:21.023Z,980.18
2019-01-13T05:36:21.193Z,980.17
2019-01-13T05:37:21.719Z,980.09
2019-01-13T05:38:21.789Z,980.08
2019-01-13T05:39:21.647Z,980.02
2019-01-13T05:40:21.943Z,980.00
2019-01-13T05:41:22.319Z,979.99
2019-01-13T05:42:22.289Z,979.99
2019-01-13T05:43:22.640Z,980.02
2019-01-13T05:44:22.875Z,979.97
2019-01-13T05:45:22.911Z,979.92
2019-01-13T05:46:23.093Z,979.92
2019-01-13T05:47:23.361Z,979.86
2019-01-13T05:48:23.390Z,979.92
2019-01-13T05:49:23.623Z,979.92
2019-01-13T05:50:23.756Z,979.94
2019-01-13T05:51:23.913Z,979.95
2019-01-13T05:52:24.304Z,979.92
2019-01-13T05:53:24.335Z,979.88
2019-01-13T05:54:24.731Z,979.91
2019-01-13T05:55:24.779Z,979.90
2019-01-13T05:56:24.786Z,979.90
2019-01-13T05:57:24.992Z,979.90
2019-01-13T05:58:25.281Z,979.92
2019-01-13T05:59:25.814Z,979.93
2019-01-13T06:00:25.913Z,979.92
2019-01-13T06:01:26.107Z,979.96
2019-01-13T06:02:25.937Z,979.94
2019-01-13T06:03:26.003Z,979.96
2019-01-13T06:04:26.459Z,979.94
2019-01-13T06:05:26.605Z,980.02
2019-01-13T06:06:26.775Z,980.00
2019-01-13T06:07:27.077Z,980.01
2019-01-13T06:08:27.816Z,979.98
2019-01-13T06:09:27.182Z,979.97
2019-01-13T06:10:27.375Z,979.90
2019-01-13T06:11:44.090Z,979.96
2019-01-13T06:12:43.491Z,979.91
2019-01-13T06:14:30.001Z,979.88
2019-01-13T06:15:30.560Z,979.93
2019-01-13T06:16:31.442Z,979.91
2019-01-13T06:17:30.852Z,979.89
2019-01-13T06:18:32.093Z,979.92
2019-01-13T06:19:31.812Z,979.93
2019-01-13T06:20:29.611Z,979.98
2019-01-13T06:21:29.036Z,979.97
2019-01-13T06:22:29.187Z,979.92
2019-01-13T06:23:29.417Z,979.95
2019-01-13T06:24:29.522Z,979.96
2019-01-13T06:25:29.884Z,979.92
2019-01-13T06:26:29.888Z,979.94
2019-01-13T06:27:30.092Z,979.85
2019-01-13T06:28:30.292Z,979.91
2019-01-13T06:29:30.424Z,979.88
2019-01-13T06:30:31.322Z,979.90
2019-01-13T06:31:30.642Z,979.84
2019-01-13T06:32:30.944Z,979.87
2019-01-13T06:33:31.080Z,979.82
2019-01-13T06:34:31.043Z,979.80
2019-01-13T06:35:31.299Z,979.79
2019-01-13T06:36:31.463Z,979.84
2019-01-13T06:37:31.596Z,979.82
2019-01-13T06:38:31.785Z,979.77
2019-01-13T06:39:31.931Z,979.72
2019-01-13T06:40:32.134Z,979.74
2019-01-13T06:41:32.247Z,979.75
2019-01-13T06:42:32.407Z,979.74
2019-01-13T06:43:32.582Z,979.71
2019-01-13T06:44:32.869Z,979.69
2019-01-13T06:45:32.865Z,979.60
2019-01-13T06:46:33.091Z,979.61
2019-01-13T06:47:33.273Z,979.63
2019-01-13T06:48:33.478Z,979.60
2019-01-13T06:49:33.596Z,979.67
2019-01-13T06:50:33.845Z,979.60
2019-01-13T06:51:33.943Z,979.59
2019-01-13T06:52:34.053Z,979.55
2019-01-13T06:53:34.359Z,979.60
2019-01-13T06:54:34.576Z,979.52
2019-01-13T06:55:34.687Z,979.48
2019-01-13T06:56:34.801Z,979.52
2019-01-13T06:57:35.023Z,979.48
2019-01-13T06:58:35.044Z,979.44
2019-01-13T06:59:35.339Z,979.43
2019-01-13T07:00:35.471Z,979.43
2019-01-13T07:01:35.763Z,979.33
2019-01-13T07:02:35.800Z,979.28
2019-01-13T07:03:36.038Z,979.28
2019-01-13T07:04:36.205Z,979.27
2019-01-13T07:05:36.384Z,979.22
2019-01-13T07:06:36.683Z,979.22
2019-01-13T07:07:37.506Z,979.25
2019-01-13T07:08:36.999Z,979.22
2019-01-13T07:09:37.178Z,979.21
2019-01-13T07:10:37.251Z,979.19
2019-01-13T07:11:37.484Z,979.18
2019-01-13T07:12:37.620Z,979.16
2019-01-13T07:13:37.919Z,979.18
2019-01-13T07:14:37.928Z,979.28
2019-01-13T07:15:37.994Z,979.26
2019-01-13T07:16:38.233Z,979.30
2019-01-13T07:17:38.391Z,979.36
2019-01-13T07:18:38.495Z,979.33
2019-01-13T07:19:38.654Z,979.42
2019-01-13T07:20:38.760Z,979.37
2019-01-13T07:21:38.965Z,979.30
2019-01-13T07:22:39.253Z,979.32
2019-01-13T07:23:39.723Z,979.30
2019-01-13T07:24:39.476Z,979.31
2019-01-13T07:25:39.601Z,979.30
2019-01-13T07:26:40.318Z,979.30
2019-01-13T07:27:39.942Z,979.30
2019-01-13T07:28:40.156Z,979.27
2019-01-13T07:29:40.326Z,979.28
2019-01-13T07:30:40.350Z,979.30
2019-01-13T07:31:40.593Z,979.23
2019-01-13T07:32:40.740Z,979.26
2019-01-13T07:33:41.244Z,979.26
2019-01-13T07:34:41.283Z,979.26
2019-01-13T07:35:41.479Z,979.25
2019-01-13T07:36:41.502Z,979.21
2019-01-13T07:37:41.738Z,979.22
2019-01-13T07:38:41.833Z,979.21
2019-01-13T07:39:41.964Z,979.20
2019-01-13T07:40:42.142Z,979.17
2019-01-13T07:41:42.298Z,979.15
2019-01-13T07:42:42.519Z,979.13
2019-01-13T07:43:42.615Z,979.15
2019-01-13T07:44:42.941Z,979.07
2019-01-13T07:45:43.049Z,979.05
2019-01-13T07:46:43.240Z,979.08
2019-01-13T07:47:43.332Z,979.01
2019-01-13T07:48:43.532Z,979.01
2019-01-13T07:49:43.680Z,978.98
2019-01-13T07:50:43.971Z,979.00
2019-01-13T07:51:44.311Z,978.98
2019-01-13T07:52:44.110Z,978.95
2019-01-13T07:53:44.774Z,978.96
2019-01-13T07:54:44.547Z,978.98
2019-01-13T07:55:45.563Z,978.94
2019-01-13T07:56:44.965Z,978.94
2019-01-13T07:57:45.662Z,978.94
2019-01-13T07:58:45.171Z,978.91
2019-01-13T07:59:45.380Z,978.95
2019-01-13T08:00:45.509Z,978.94
2019-01-13T08:01:45.645Z,978.91
2019-01-13T08:02:45.875Z,978.89
2019-01-13T08:03:45.932Z,978.96
2019-01-13T08:04:46.131Z,978.87
2019-01-13T08:05:46.191Z,978.85
2019-01-13T08:06:46.763Z,978.92
2019-01-13T08:07:46.745Z,978.87
2019-01-13T08:08:46.845Z,978.84
2019-01-13T08:09:47.087Z,978.90
2019-01-13T08:11:47.286Z,978.76
2019-01-13T08:12:47.650Z,978.74
2019-01-13T08:13:47.864Z,978.73
2019-01-13T08:14:47.889Z,978.70
2019-01-13T08:15:48.148Z,978.76
2019-01-13T08:16:48.302Z,978.75
2019-01-13T08:17:48.549Z,978.74
2019-01-13T08:18:48.724Z,978.77
2019-01-13T08:19:48.748Z,978.77
2019-01-13T08:20:48.850Z,978.80
2019-01-13T08:21:49.008Z,978.75
2019-01-13T08:22:49.173Z,978.73
2019-01-13T08:23:49.383Z,978.70
2019-01-13T08:24:49.588Z,978.69
2019-01-13T08:25:49.669Z,978.65
2019-01-13T08:26:49.747Z,978.62
2019-01-13T08:27:49.971Z,978.60
2019-01-13T08:28:50.075Z,978.53
2019-01-13T08:29:50.347Z,978.55
2019-01-13T08:30:50.511Z,978.59
2019-01-13T08:31:50.730Z,978.60
2019-01-13T08:32:50.931Z,978.57
2019-01-13T08:33:51.053Z,978.55
2019-01-13T08:34:51.203Z,978.55
2019-01-13T08:35:51.349Z,978.53
2019-01-13T08:36:51.607Z,978.51
2019-01-13T08:37:51.750Z,978.49
2019-01-13T08:38:51.887Z,978.41
2019-01-13T08:39:52.094Z,978.38
2019-01-13T08:40:52.298Z,978.42
2019-01-13T08:41:52.595Z,978.41
2019-01-13T08:42:52.731Z,978.30
2019-01-13T08:43:52.846Z,978.29
2019-01-13T08:44:53.029Z,978.31
2019-01-13T08:45:53.178Z,978.32
2019-01-13T08:46:53.835Z,978.30
2019-01-13T08:47:53.933Z,978.30
2019-01-13T08:48:53.916Z,978.26
2019-01-13T08:49:53.905Z,978.26
2019-01-13T08:50:54.083Z,978.17
2019-01-13T08:51:54.222Z,978.17
2019-01-13T08:52:54.413Z,978.07
2019-01-13T08:53:54.564Z,978.07
2019-01-13T08:54:54.774Z,978.10
2019-01-13T08:55:55.035Z,978.04
2019-01-13T08:56:55.037Z,978.08
2019-01-13T08:57:55.311Z,978.04
2019-01-13T08:58:55.434Z,978.06
2019-01-13T08:59:55.581Z,978.04
2019-01-13T09:00:55.797Z,977.94
2019-01-13T09:01:56.298Z,977.94
2019-01-13T09:02:57.009Z,977.99
2019-01-13T09:03:56.626Z,977.92
2019-01-13T09:04:56.827Z,977.91
2019-01-13T09:05:56.429Z,977.94
2019-01-13T09:06:56.499Z,977.91
2019-01-13T09:07:57.196Z,977.86
2019-01-13T09:08:56.920Z,977.85
2019-01-13T09:09:57.197Z,977.89
2019-01-13T09:10:57.292Z,977.85
2019-01-13T09:11:58.205Z,977.79
2019-01-13T09:12:57.652Z,977.78
2019-01-13T09:13:57.787Z,977.81
2019-01-13T09:14:58.015Z,977.75
2019-01-13T09:15:58.096Z,977.79
2019-01-13T09:16:58.188Z,977.71
2019-01-13T09:17:58.303Z,977.69
2019-01-13T09:18:58.917Z,977.66
2019-01-13T09:20:11.066Z,977.65
2019-01-13T09:21:01.467Z,977.65
2019-01-13T09:24:04.995Z,977.59
2019-01-13T09:25:02.286Z,977.55
2019-01-13T09:27:02.976Z,977.56
2019-01-13T09:28:03.598Z,977.58
2019-01-13T09:29:03.375Z,977.42
2019-01-13T09:30:03.675Z,977.46
2019-01-13T09:32:05.834Z,977.41
2019-01-13T09:33:05.473Z,977.40
2019-01-13T09:34:03.416Z,977.32
2019-01-13T09:35:03.897Z,977.30
2019-01-13T09:36:04.502Z,977.30
2019-01-13T09:38:04.389Z,977.32
2019-01-13T09:39:04.494Z,977.24
2019-01-13T09:40:05.417Z,977.24
2019-01-13T09:41:05.388Z,977.16
2019-01-13T09:42:07.851Z,977.14
2019-01-13T09:43:02.732Z,977.17
2019-01-13T09:44:02.670Z,977.14
2019-01-13T09:45:19.642Z,977.12
2019-01-13T09:46:03.037Z,977.14
2019-01-13T09:47:06.692Z,977.15
2019-01-13T09:48:05.547Z,977.13
2019-01-13T09:49:08.674Z,977.11
2019-01-13T09:50:13.155Z,977.03
2019-01-13T09:51:05.815Z,977.07
2019-01-13T09:52:04.390Z,977.09
2019-01-13T09:53:05.297Z,977.05
2019-01-13T09:54:04.644Z,977.03
2019-01-13T09:55:04.491Z,977.05
2019-01-13T09:58:10.906Z,976.94
2019-01-13T09:59:10.888Z,976.89
2019-01-13T10:00:11.181Z,976.91
2019-01-13T10:26:45.715Z,976.16
2019-01-13T10:27:52.999Z,976.13
2019-01-13T10:28:45.980Z,976.12
2019-01-13T10:29:45.402Z,976.11
2019-01-13T10:30:45.933Z,976.13
2019-01-13T10:31:46.527Z,976.10
2019-01-13T10:32:46.770Z,976.09
2019-01-13T10:33:46.490Z,976.09
2019-01-13T10:35:55.167Z,976.06
2019-01-13T10:36:48.043Z,976.05
2019-01-13T10:37:46.927Z,975.94
2019-01-13T10:38:47.437Z,975.95
2019-01-13T10:43:20.676Z,975.88
2019-01-13T10:45:57.108Z,975.80
2019-01-13T10:46:54.750Z,975.73
2019-01-13T10:47:56.961Z,975.78
2019-01-13T10:48:54.723Z,975.73
2019-01-13T10:50:06.507Z,975.69
2019-01-13T10:51:57.033Z,975.58
2019-01-13T10:52:55.149Z,975.56
2019-01-13T10:53:55.414Z,975.54
2019-01-13T10:54:55.465Z,975.51
2019-01-13T10:55:55.726Z,975.57
2019-01-13T10:56:55.764Z,975.54
2019-01-13T10:57:55.914Z,975.46
2019-01-13T10:58:56.162Z,975.50
2019-01-13T10:59:56.255Z,975.47
2019-01-13T11:00:56.485Z,975.41
2019-01-13T11:01:56.644Z,975.41
2019-01-13T11:03:01.969Z,975.37
2019-01-13T11:03:56.879Z,975.34
2019-01-13T11:04:57.045Z,975.33
2019-01-13T11:05:57.206Z,975.30
2019-01-13T11:06:57.347Z,975.26
2019-01-13T11:07:57.571Z,975.23
2019-01-13T11:08:57.673Z,975.20
2019-01-13T11:09:57.846Z,975.15
2019-01-13T11:10:58.068Z,975.16
2019-01-13T11:11:58.234Z,975.09
2019-01-13T11:12:58.426Z,975.05
2019-01-13T11:13:58.529Z,975.06
2019-01-13T11:14:58.730Z,975.01
2019-01-13T11:15:58.877Z,975.01
2019-01-13T11:16:59.074Z,974.99
2019-01-13T11:20:56.977Z,974.93
2019-01-13T11:21:58.407Z,974.94
2019-01-13T11:22:53.811Z,974.87
2019-01-13T11:23:55.021Z,974.87
2019-01-13T11:26:05.047Z,974.79
2019-01-13T11:26:57.209Z,974.73
2019-01-13T11:27:56.515Z,974.73
2019-01-13T11:28:54.671Z,974.58
2019-01-13T11:29:54.870Z,974.63
2019-01-13T11:30:55.093Z,974.63
2019-01-13T11:31:55.021Z,974.55
2019-01-13T11:32:55.237Z,974.54
2019-01-13T11:33:55.431Z,974.49
2019-01-13T11:34:55.531Z,974.51
2019-01-13T11:35:55.715Z,974.43
2019-01-13T11:36:55.916Z,974.51
2019-01-13T11:37:56.036Z,974.50
2019-01-13T11:38:56.291Z,974.45
2019-01-13T11:39:56.521Z,974.40
2019-01-13T11:40:56.619Z,974.40
2019-01-13T11:41:56.731Z,974.43
2019-01-13T11:42:56.907Z,974.44
2019-01-13T11:43:57.089Z,974.43
2019-01-13T11:44:57.177Z,974.44
2019-01-13T11:45:57.390Z,974.35
2019-01-13T11:46:57.647Z,974.29
2019-01-13T11:47:57.760Z,974.33
2019-01-13T11:48:57.943Z,974.23
2019-01-13T11:49:58.129Z,974.30
2019-01-13T11:50:58.309Z,974.21
2019-01-13T11:51:58.487Z,974.27
2019-01-13T11:52:58.611Z,974.22
2019-01-13T11:53:58.718Z,974.17
2019-01-13T11:54:58.898Z,974.19
2019-01-13T11:55:59.082Z,974.14
2019-01-13T11:56:59.215Z,974.10
2019-01-13T11:57:59.376Z,974.06
2019-01-13T11:58:59.579Z,974.05
2019-01-13T11:59:59.719Z,973.99
2019-01-13T12:00:59.906Z,973.92
2019-01-13T12:02:00.006Z,973.79
2019-01-13T12:03:06.354Z,973.84
2019-01-13T12:04:00.368Z,973.79
2019-01-13T12:05:00.474Z,973.76
2019-01-13T12:06:00.694Z,973.80
2019-01-13T12:07:00.778Z,973.82
2019-01-13T12:08:00.982Z,973.76
2019-01-13T12:09:01.086Z,973.75
2019-01-13T12:10:01.429Z,973.68
2019-01-13T12:11:01.515Z,973.66
2019-01-13T12:12:01.609Z,973.61
2019-01-13T12:13:01.795Z,973.54
2019-01-13T12:14:01.880Z,973.48
2019-01-13T12:15:02.137Z,973.39
2019-01-13T12:16:02.256Z,973.47
2019-01-13T12:17:02.453Z,973.40
2019-01-13T12:18:02.590Z,973.43
2019-01-13T12:19:02.732Z,973.38
2019-01-13T12:20:02.935Z,973.39
2019-01-13T12:21:03.246Z,973.31
2019-01-13T12:22:04.590Z,973.30
2019-01-13T12:23:03.678Z,973.23
2019-01-13T12:24:03.740Z,973.19
2019-01-13T12:25:03.782Z,973.21
2019-01-13T12:26:03.963Z,973.17
2019-01-13T12:27:04.171Z,973.13
2019-01-13T12:28:04.386Z,973.14
2019-01-13T12:29:05.276Z,973.21
2019-01-13T12:30:04.672Z,973.19
2019-01-13T12:31:04.856Z,973.21
2019-01-13T12:32:05.025Z,973.16
2019-01-13T12:33:05.173Z,973.20
2019-01-13T12:34:05.288Z,973.17
2019-01-13T12:35:05.516Z,973.05
2019-01-13T12:36:05.786Z,973.09
2019-01-13T12:37:05.854Z,973.15
2019-01-13T12:38:05.975Z,973.06
2019-01-13T12:39:06.223Z,973.05
2019-01-13T12:40:06.391Z,973.03
2019-01-13T12:41:06.524Z,973.01
2019-01-13T12:42:06.710Z,973.04
2019-01-13T12:43:06.869Z,973.04
2019-01-13T12:44:06.969Z,973.00
2019-01-13T12:45:07.197Z,973.00
2019-01-13T12:46:07.357Z,972.93
2019-01-13T12:47:07.490Z,972.90
2019-01-13T12:48:07.656Z,972.97
2019-01-13T12:49:07.826Z,972.95
2019-01-13T12:50:07.923Z,972.92
2019-01-13T12:51:08.159Z,972.94
2019-01-13T12:52:08.347Z,972.84
2019-01-13T12:53:08.429Z,972.87
2019-01-13T12:54:08.606Z,972.88
2019-01-13T12:55:08.833Z,972.79
2019-01-13T12:56:08.983Z,972.75
2019-01-13T12:57:09.113Z,972.76
2019-01-13T12:58:09.332Z,972.71
2019-01-13T12:59:09.486Z,972.71
2019-01-13T13:00:09.673Z,972.73
2019-01-13T13:01:09.715Z,972.68
2019-01-13T13:02:10.932Z,972.64
2019-01-13T13:03:10.139Z,972.67
2019-01-13T13:04:10.343Z,972.66
2019-01-13T13:05:10.468Z,972.61
2019-01-13T13:06:10.617Z,972.62
2019-01-13T13:07:10.760Z,972.58
2019-01-13T13:08:10.893Z,972.58
2019-01-13T13:09:11.108Z,972.53
2019-01-13T13:10:11.266Z,972.50
2019-01-13T13:11:11.420Z,972.55
2019-01-13T13:12:11.562Z,972.47
2019-01-13T13:13:11.747Z,972.44
2019-01-13T13:14:11.906Z,972.42
2019-01-13T13:15:12.050Z,972.43
2019-01-13T13:16:12.203Z,972.41
2019-01-13T13:17:12.775Z,972.37
2019-01-13T13:18:12.647Z,972.37
2019-01-13T13:19:12.709Z,972.39
2019-01-13T13:20:12.857Z,972.39
2019-01-13T13:21:13.083Z,972.33
2019-01-13T13:22:13.198Z,972.38
2019-01-13T13:23:13.368Z,972.30
2019-01-13T13:24:13.698Z,972.34
2019-01-13T13:25:14.427Z,972.36
2019-01-13T13:26:14.139Z,972.36
2019-01-13T13:27:14.333Z,972.36
2019-01-13T13:28:14.288Z,972.29
2019-01-13T13:29:14.624Z,972.30
2019-01-13T13:30:26.483Z,972.27
2019-01-13T13:32:17.529Z,972.17
2019-01-13T13:33:17.598Z,972.17
2019-01-13T13:34:17.652Z,972.22
2019-01-13T13:35:18.561Z,972.21
2019-01-13T13:36:19.581Z,972.12
2019-01-13T13:37:18.143Z,972.11
2019-01-13T13:38:17.756Z,971.96
2019-01-13T13:39:18.201Z,971.94
2019-01-13T13:40:19.135Z,971.99
2019-01-13T13:41:18.656Z,972.05
2019-01-13T13:42:19.100Z,971.99
2019-01-13T13:43:16.819Z,972.00
2019-01-13T13:44:16.763Z,971.91
2019-01-13T13:45:16.976Z,971.97
2019-01-13T13:46:17.031Z,971.95
2019-01-13T13:47:17.211Z,971.94
2019-01-13T13:48:17.371Z,971.86
2019-01-13T13:49:17.583Z,971.91
2019-01-13T13:50:17.729Z,971.87
2019-01-13T13:51:17.899Z,971.95
2019-01-13T13:52:17.969Z,971.89
2019-01-13T13:53:18.241Z,971.91
2019-01-13T13:54:18.300Z,971.84
2019-01-13T13:55:18.591Z,971.97
2019-01-13T13:56:19.328Z,971.84
2019-01-13T13:57:18.897Z,971.89
2019-01-13T13:58:19.161Z,972.01
2019-01-13T13:59:19.229Z,971.93
2019-01-13T14:00:19.453Z,971.84
2019-01-13T14:01:19.677Z,971.90
2019-01-13T14:02:19.858Z,971.91
2019-01-13T14:03:19.985Z,971.83
2019-01-13T14:04:20.094Z,971.86
2019-01-13T14:05:20.282Z,971.82
2019-01-13T14:06:20.353Z,971.73
2019-01-13T14:07:20.667Z,971.65
2019-01-13T14:08:20.857Z,971.61
2019-01-13T14:09:21.006Z,971.62
2019-01-13T14:10:21.098Z,971.62
2019-01-13T14:11:21.290Z,971.58
2019-01-13T14:12:21.410Z,971.56
2019-01-13T14:13:21.681Z,971.44
2019-01-13T14:14:21.772Z,971.43
2019-01-13T14:15:21.952Z,971.34
2019-01-13T14:16:22.201Z,971.36
2019-01-13T14:17:22.810Z,971.36
2019-01-13T14:18:22.577Z,971.32
2019-01-13T14:19:22.651Z,971.30
2019-01-13T14:20:22.847Z,971.30
2019-01-13T14:21:22.947Z,971.22
2019-01-13T14:22:23.171Z,971.24
2019-01-13T14:23:23.339Z,971.10
2019-01-13T14:24:24.638Z,971.24
2019-01-13T14:25:23.561Z,971.25
2019-01-13T14:26:23.725Z,971.25
2019-01-13T14:27:23.961Z,971.20
2019-01-13T14:28:24.160Z,971.21
2019-01-13T14:29:24.244Z,971.25
2019-01-13T14:30:24.451Z,971.28
2019-01-13T14:31:24.612Z,971.29
2019-01-13T14:32:24.823Z,971.33
2019-01-13T14:33:24.962Z,971.35
2019-01-13T14:34:25.104Z,971.30
2019-01-13T14:35:25.304Z,971.38
2019-01-13T14:36:25.406Z,971.41
2019-01-13T14:37:25.664Z,971.42
2019-01-13T14:38:25.698Z,971.37
2019-01-13T14:39:25.981Z,971.33
2019-01-13T14:40:26.077Z,971.44
2019-01-13T14:41:26.157Z,971.32
2019-01-13T14:42:26.488Z,971.25
2019-01-13T14:43:26.561Z,971.30
2019-01-13T14:44:26.752Z,971.25
2019-01-13T14:45:26.902Z,971.31
2019-01-13T14:46:27.055Z,971.28
2019-01-13T14:47:27.252Z,971.35
2019-01-13T14:48:27.539Z,971.28
2019-01-13T14:49:27.654Z,971.28
2019-01-13T14:50:27.720Z,971.27
2019-01-13T14:51:27.972Z,971.31
2019-01-13T14:52:28.038Z,971.33
2019-01-13T14:53:28.224Z,971.30
2019-01-13T14:54:28.443Z,971.22
2019-01-13T14:55:28.492Z,971.25
2019-01-13T14:56:28.719Z,971.16
2019-01-13T14:57:28.822Z,971.07
2019-01-13T14:58:29.090Z,971.06
2019-01-13T14:59:29.185Z,971.06
2019-01-13T15:00:29.666Z,971.07
2019-01-13T15:01:29.515Z,971.09
2019-01-13T15:02:29.642Z,970.98
2019-01-13T15:03:29.853Z,971.03
2019-01-13T15:04:30.052Z,971.07
2019-01-13T15:05:30.141Z,971.05
2019-01-13T15:06:30.273Z,971.11
2019-01-13T15:07:30.429Z,971.17
2019-01-13T15:08:30.705Z,971.20
2019-01-13T15:09:31.490Z,971.19
2019-01-13T15:10:31.073Z,971.21
2019-01-13T15:11:31.167Z,971.26
2019-01-13T15:12:31.307Z,971.22
2019-01-13T15:13:31.543Z,971.19
2019-01-13T15:14:31.657Z,971.19
2019-01-13T15:15:31.878Z,971.18
2019-01-13T15:16:32.893Z,971.10
2019-01-13T15:17:32.165Z,971.19
2019-01-13T15:18:32.313Z,971.15
2019-01-13T15:19:32.423Z,971.22
2019-01-13T15:20:32.688Z,971.21
2019-01-13T15:21:32.812Z,971.25
2019-01-13T15:22:32.986Z,971.20
2019-01-13T15:23:33.122Z,971.14
2019-01-13T15:24:33.306Z,971.14
2019-01-13T15:25:33.482Z,971.14
2019-01-13T15:26:33.650Z,971.19
2019-01-13T15:27:33.731Z,971.06
2019-01-13T15:28:33.990Z,971.03
2019-01-13T15:29:34.104Z,971.07
2019-01-13T15:30:34.321Z,971.03
2019-01-13T15:31:34.433Z,971.02
2019-01-13T15:32:34.519Z,971.06
2019-01-13T15:33:34.762Z,971.08
2019-01-13T15:34:34.954Z,971.13
2019-01-13T15:35:35.308Z,971.05
2019-01-13T15:36:35.238Z,971.07
2019-01-13T15:37:35.416Z,971.20
2019-01-13T15:38:35.567Z,971.14
2019-01-13T15:39:35.727Z,971.11
2019-01-13T15:40:35.940Z,971.08
2019-01-13T15:41:35.993Z,970.98
2019-01-13T15:42:36.161Z,971.05
2019-01-13T15:43:36.324Z,971.16
2019-01-13T15:44:36.484Z,971.11
2019-01-13T15:45:36.578Z,971.08
2019-01-13T15:46:36.856Z,971.16
2019-01-13T15:47:36.986Z,971.20
2019-01-13T15:48:37.212Z,971.21
2019-01-13T15:49:37.385Z,971.11
2019-01-13T15:50:37.532Z,971.07
2019-01-13T15:51:37.590Z,971.11
2019-01-13T15:52:37.792Z,971.12
2019-01-13T15:53:37.851Z,971.13
2019-01-13T15:54:38.125Z,971.14
2019-01-13T15:55:38.257Z,971.16
2019-01-13T15:56:38.413Z,971.19
2019-01-13T15:57:38.563Z,971.15
2019-01-13T15:58:38.708Z,971.09
2019-01-13T15:59:38.904Z,971.07
2019-01-13T16:00:39.005Z,970.99
2019-01-13T16:01:39.203Z,970.90
2019-01-13T16:02:39.408Z,970.88
2019-01-13T16:03:39.485Z,970.79
2019-01-13T16:04:39.699Z,970.80
2019-01-13T16:05:39.774Z,970.84
2019-01-13T16:06:39.948Z,970.85
2019-01-13T16:07:40.099Z,970.89
2019-01-13T16:08:40.323Z,970.82
2019-01-13T16:09:40.413Z,970.80
2019-01-13T16:10:40.587Z,970.75
2019-01-13T16:11:40.804Z,970.71
2019-01-13T16:12:40.915Z,970.68
2019-01-13T16:13:41.017Z,970.63
2019-01-13T16:14:41.293Z,970.60
2019-01-13T16:15:41.431Z,970.63
2019-01-13T16:16:41.564Z,970.62
2019-01-13T16:17:41.715Z,970.55
2019-01-13T16:18:41.947Z,970.57
2019-01-13T16:19:42.145Z,970.56
2019-01-13T16:20:42.311Z,970.52
2019-01-13T16:21:42.452Z,970.52
2019-01-13T16:22:42.585Z,970.50
2019-01-13T16:23:42.826Z,970.46
2019-01-13T16:24:43.479Z,970.39
2019-01-13T16:25:43.130Z,970.38
2019-01-13T16:26:43.272Z,970.41
2019-01-13T16:27:43.460Z,970.41
2019-01-13T16:28:43.586Z,970.26
2019-01-13T16:29:43.811Z,970.21
2019-01-13T16:30:43.997Z,970.19
2019-01-13T16:31:44.173Z,970.17
2019-01-13T16:32:44.242Z,970.18
2019-01-13T16:33:44.470Z,970.19
2019-01-13T16:34:44.674Z,970.05
2019-01-13T16:35:44.755Z,970.11
2019-01-13T16:36:44.973Z,970.00
2019-01-13T16:37:45.331Z,970.12
2019-01-13T16:38:45.340Z,970.12
2019-01-13T16:39:45.471Z,970.08
2019-01-13T16:40:45.670Z,970.08
2019-01-13T16:41:45.803Z,970.13
2019-01-13T16:42:46.101Z,970.13
2019-01-13T16:43:46.145Z,970.10
2019-01-13T16:44:46.332Z,970.08
2019-01-13T16:45:46.446Z,970.02
2019-01-13T16:46:46.614Z,970.02
2019-01-13T16:47:46.782Z,970.01
2019-01-13T16:48:46.951Z,970.05
2019-01-13T16:49:47.206Z,970.07
2019-01-13T16:50:47.315Z,970.06
2019-01-13T16:51:47.436Z,969.95
2019-01-13T16:52:47.589Z,970.02
2019-01-13T16:53:47.735Z,970.00
2019-01-13T16:54:47.867Z,970.05
2019-01-13T16:55:48.108Z,970.04
2019-01-13T16:56:48.219Z,969.97
2019-01-13T16:57:48.333Z,970.02
2019-01-13T16:58:48.565Z,969.97
2019-01-13T16:59:48.718Z,970.03
2019-01-13T17:00:48.873Z,969.91
2019-01-13T17:01:49.032Z,969.86
2019-01-13T17:02:49.169Z,969.83
2019-01-13T17:03:49.369Z,969.80
2019-01-13T17:04:49.529Z,969.82
2019-01-13T17:05:49.671Z,969.84
2019-01-13T17:06:49.884Z,969.80
2019-01-13T17:07:49.989Z,969.79
2019-01-13T17:08:50.213Z,969.91
2019-01-13T17:09:50.351Z,969.86
2019-01-13T17:10:50.525Z,969.78
2019-01-13T17:11:50.690Z,969.79
2019-01-13T17:12:50.774Z,969.75
2019-01-13T17:13:50.941Z,969.79
2019-01-13T17:14:51.117Z,969.87
2019-01-13T17:15:51.333Z,969.78
2019-01-13T17:16:51.390Z,969.77
2019-01-13T17:17:51.661Z,969.70
2019-01-13T17:18:51.901Z,969.69